sensor_id;sensor_type;location;lat;lon;timestamp;pressure;altitude;pressure_sealevel;temperature;humidity
51452;BME280;37521;52.020;-1.740;2023-03-22T00:02:22;98328.56;;;7.32;100.00
51452;BME280;37521;52.020;-1.740;2023-03-22T00:04:52;98330.25;;;7.33;100.00
51452;BME280;37521;52.020;-1.740;2023-03-22T00:07:21;98330.34;;;7.31;100.00
51452;BME280;37521;52.020;-1.740;2023-03-22T00:09:49;98336.44;;;7.32;100.00
51452;BME280;37521;52.020;-1.740;2023-03-22T00:12:17;98329.50;;;7.31;100.00
51452;BME280;37521;52.020;-1.740;2023-03-22T00:14:46;98320.00;;;7.28;100.00
51452;BME280;37521;52.020;-1.740;2023-03-22T00:17:15;98314.59;;;7.31;100.00
51452;BME280;37521;52.020;-1.740;2023-03-22T00:19:43;98312.06;;;7.30;100.00
51452;BME280;37521;52.020;-1.740;2023-03-22T00:22:12;98298.09;;;7.29;100.00
51452;BME280;37521;52.020;-1.740;2023-03-22T00:24:41;98285.03;;;7.28;100.00
51452;BME280;37521;52.020;-1.740;2023-03-22T00:27:10;98283.44;;;7.25;100.00
51452;BME280;37521;52.020;-1.740;2023-03-22T00:29:38;98275.69;;;7.24;100.00
51452;BME280;37521;52.020;-1.740;2023-03-22T00:32:06;98271.16;;;7.26;100.00
51452;BME280;37521;52.020;-1.740;2023-03-22T00:34:34;98271.06;;;7.27;100.00
51452;BME280;37521;52.020;-1.740;2023-03-22T00:37:02;98256.16;;;7.28;100.00
51452;BME280;37521;52.020;-1.740;2023-03-22T00:39:31;98239.56;;;7.27;100.00
51452;BME280;37521;52.020;-1.740;2023-03-22T00:42:01;98228.31;;;7.25;100.00
51452;BME280;37521;52.020;-1.740;2023-03-22T00:44:30;98240.59;;;7.25;100.00
51452;BME280;37521;52.020;-1.740;2023-03-22T00:46:59;98244.75;;;7.29;100.00
51452;BME280;37521;52.020;-1.740;2023-03-22T00:49:27;98243.03;;;7.28;100.00
51452;BME280;37521;52.020;-1.740;2023-03-22T00:51:57;98249.91;;;7.30;100.00
51452;BME280;37521;52.020;-1.740;2023-03-22T00:54:25;98236.66;;;7.32;100.00
51452;BME280;37521;52.020;-1.740;2023-03-22T00:56:53;98242.75;;;7.32;100.00
51452;BME280;37521;52.020;-1.740;2023-03-22T00:59:22;98233.09;;;7.33;100.00
51452;BME280;37521;52.020;-1.740;2023-03-22T01:01:51;98227.84;;;7.33;100.00
51452;BME280;37521;52.020;-1.740;2023-03-22T01:04:19;98225.22;;;7.33;100.00
51452;BME280;37521;52.020;-1.740;2023-03-22T01:06:52;98220.91;;;7.32;100.00
51452;BME280;37521;52.020;-1.740;2023-03-22T01:09:25;98212.31;;;7.30;100.00
51452;BME280;37521;52.020;-1.740;2023-03-22T01:11:57;98193.16;;;7.28;100.00
51452;BME280;37521;52.020;-1.740;2023-03-22T01:14:27;98210.78;;;7.26;100.00
51452;BME280;37521;52.020;-1.740;2023-03-22T01:16:57;98189.06;;;7.24;100.00
51452;BME280;37521;52.020;-1.740;2023-03-22T01:19:25;98196.94;;;7.24;100.00
51452;BME280;37521;52.020;-1.740;2023-03-22T01:21:54;98191.78;;;7.22;100.00
51452;BME280;37521;52.020;-1.740;2023-03-22T01:24:23;98187.44;;;7.21;100.00
51452;BME280;37521;52.020;-1.740;2023-03-22T01:26:51;98190.06;;;7.21;100.00
51452;BME280;37521;52.020;-1.740;2023-03-22T01:29:19;98186.59;;;7.21;100.00
51452;BME280;37521;52.020;-1.740;2023-03-22T01:31:50;98168.16;;;7.22;100.00
51452;BME280;37521;52.020;-1.740;2023-03-22T01:34:18;98152.31;;;7.24;100.00
51452;BME280;37521;52.020;-1.740;2023-03-22T01:36:48;98150.41;;;7.26;100.00
51452;BME280;37521;52.020;-1.740;2023-03-22T01:39:17;98147.78;;;7.26;100.00
51452;BME280;37521;52.020;-1.740;2023-03-22T01:41:48;98149.47;;;7.27;100.00
51452;BME280;37521;52.020;-1.740;2023-03-22T01:44:19;98138.03;;;7.28;100.00
51452;BME280;37521;52.020;-1.740;2023-03-22T01:46:50;98135.50;;;7.26;100.00
51452;BME280;37521;52.020;-1.740;2023-03-22T01:49:22;98132.97;;;7.25;100.00
51452;BME280;37521;52.020;-1.740;2023-03-22T01:51:55;98127.63;;;7.26;100.00
51452;BME280;37521;52.020;-1.740;2023-03-22T01:54:46;98122.38;;;7.26;100.00
51452;BME280;37521;52.020;-1.740;2023-03-22T01:57:26;98114.41;;;7.28;100.00
51452;BME280;37521;52.020;-1.740;2023-03-22T01:59:58;98114.41;;;7.28;100.00
51452;BME280;37521;52.020;-1.740;2023-03-22T02:02:43;98122.09;;;7.31;100.00
51452;BME280;37521;52.020;-1.740;2023-03-22T02:05:21;98118.44;;;7.33;100.00
51452;BME280;37521;52.020;-1.740;2023-03-22T02:07:51;98115.69;;;7.35;100.00
51452;BME280;37521;52.020;-1.740;2023-03-22T02:10:23;98099.94;;;7.35;100.00
51452;BME280;37521;52.020;-1.740;2023-03-22T02:13:15;98094.91;;;7.32;100.00
51452;BME280;37521;52.020;-1.740;2023-03-22T02:16:00;98100.25;;;7.30;100.00
51452;BME280;37521;52.020;-1.740;2023-03-22T02:18:51;98095.97;;;7.29;100.00
51452;BME280;37521;52.020;-1.740;2023-03-22T02:21:46;98116.13;;;7.29;100.00
51452;BME280;37521;52.020;-1.740;2023-03-22T02:24:39;98094.06;;;7.31;100.00
51452;BME280;37521;52.020;-1.740;2023-03-22T02:27:21;98087.97;;;7.31;100.00
51452;BME280;37521;52.020;-1.740;2023-03-22T02:30:03;98082.72;;;7.31;100.00
51452;BME280;37521;52.020;-1.740;2023-03-22T02:32:50;98087.97;;;7.31;100.00
51452;BME280;37521;52.020;-1.740;2023-03-22T02:35:37;98078.59;;;7.27;100.00
51452;BME280;37521;52.020;-1.740;2023-03-22T02:38:28;98082.91;;;7.28;100.00
51452;BME280;37521;52.020;-1.740;2023-03-22T02:41:10;98063.78;;;7.26;100.00
51452;BME280;37521;52.020;-1.740;2023-03-22T02:43:47;98070.09;;;7.23;100.00
51452;BME280;37521;52.020;-1.740;2023-03-22T02:46:21;98070.09;;;7.23;100.00
51452;BME280;37521;52.020;-1.740;2023-03-22T02:48:55;98049.16;;;7.22;100.00
51452;BME280;37521;52.020;-1.740;2023-03-22T02:51:33;98050.94;;;7.21;100.00
51452;BME280;37521;52.020;-1.740;2023-03-22T02:54:07;98051.78;;;7.22;100.00
51452;BME280;37521;52.020;-1.740;2023-03-22T02:56:41;98039.72;;;7.19;100.00
51452;BME280;37521;52.020;-1.740;2023-03-22T02:59:11;98032.69;;;7.20;100.00
51452;BME280;37521;52.020;-1.740;2023-03-22T03:01:44;98033.53;;;7.20;100.00
51452;BME280;37521;52.020;-1.740;2023-03-22T03:04:17;98034.38;;;7.21;100.00
51452;BME280;37521;52.020;-1.740;2023-03-22T03:06:47;98043.00;;;7.23;100.00
51452;BME280;37521;52.020;-1.740;2023-03-22T03:09:18;98032.50;;;7.23;100.00
51452;BME280;37521;52.020;-1.740;2023-03-22T03:11:51;98047.41;;;7.22;100.00
51452;BME280;37521;52.020;-1.740;2023-03-22T03:14:22;98043.00;;;7.23;100.00
51452;BME280;37521;52.020;-1.740;2023-03-22T03:17:03;98036.03;;;7.22;100.00
51452;BME280;37521;52.020;-1.740;2023-03-22T03:19:37;98034.38;;;7.21;100.00
51452;BME280;37521;52.020;-1.740;2023-03-22T03:22:20;98025.38;;;7.25;100.00
51452;BME280;37521;52.020;-1.740;2023-03-22T03:24:59;98031.44;;;7.25;100.00
51452;BME280;37521;52.020;-1.740;2023-03-22T03:27:34;98029.56;;;7.27;100.00
51452;BME280;37521;52.020;-1.740;2023-03-22T03:30:10;98032.94;;;7.29;100.00
51452;BME280;37521;52.020;-1.740;2023-03-22T03:32:45;98020.66;;;7.30;100.00
51452;BME280;37521;52.020;-1.740;2023-03-22T03:35:19;98020.66;;;7.30;100.00
51452;BME280;37521;52.020;-1.740;2023-03-22T03:37:52;98009.22;;;7.31;100.00
51452;BME280;37521;52.020;-1.740;2023-03-22T03:40:27;98013.53;;;7.32;100.00
51452;BME280;37521;52.020;-1.740;2023-03-22T03:43:01;98001.13;;;7.34;100.00
51452;BME280;37521;52.020;-1.740;2023-03-22T03:45:30;98014.25;;;7.34;100.00
51452;BME280;37521;52.020;-1.740;2023-03-22T03:48:03;98011.00;;;7.30;100.00
51452;BME280;37521;52.020;-1.740;2023-03-22T03:50:33;97996.09;;;7.31;100.00
51452;BME280;37521;52.020;-1.740;2023-03-22T03:53:02;97999.56;;;7.31;100.00
51452;BME280;37521;52.020;-1.740;2023-03-22T03:55:31;97984.88;;;7.29;100.00
51452;BME280;37521;52.020;-1.740;2023-03-22T03:58:00;97984.00;;;7.28;100.00
51452;BME280;37521;52.020;-1.740;2023-03-22T04:00:28;97984.75;;;7.30;100.00
51452;BME280;37521;52.020;-1.740;2023-03-22T04:03:17;97999.44;;;7.33;100.00
51452;BME280;37521;52.020;-1.740;2023-03-22T04:06:08;97992.53;;;7.32;100.00
51452;BME280;37521;52.020;-1.740;2023-03-22T04:08:39;97989.91;;;7.32;100.00
51452;BME280;37521;52.020;-1.740;2023-03-22T04:11:14;97997.88;;;7.30;100.00
51452;BME280;37521;52.020;-1.740;2023-03-22T04:13:47;97999.44;;;7.33;100.00
51452;BME280;37521;52.020;-1.740;2023-03-22T04:16:19;97989.69;;;7.35;100.00
51452;BME280;37521;52.020;-1.740;2023-03-22T04:18:47;97980.91;;;7.36;100.00
51452;BME280;37521;52.020;-1.740;2023-03-22T04:21:15;97995.78;;;7.35;100.00
51452;BME280;37521;52.020;-1.740;2023-03-22T04:23:53;97994.09;;;7.34;100.00
51452;BME280;37521;52.020;-1.740;2023-03-22T04:26:22;97999.28;;;7.36;100.00
51452;BME280;37521;52.020;-1.740;2023-03-22T04:29:08;97995.78;;;7.35;100.00
51452;BME280;37521;52.020;-1.740;2023-03-22T04:31:42;98009.66;;;7.37;100.00
51452;BME280;37521;52.020;-1.740;2023-03-22T04:34:28;98019.13;;;7.40;100.00
51452;BME280;37521;52.020;-1.740;2023-03-22T04:37:01;98020.78;;;7.41;100.00
51452;BME280;37521;52.020;-1.740;2023-03-22T04:39:35;98030.06;;;7.47;100.00
51452;BME280;37521;52.020;-1.740;2023-03-22T04:42:22;98017.75;;;7.47;100.00
51452;BME280;37521;52.020;-1.740;2023-03-22T04:45:03;98027.31;;;7.48;100.00
51452;BME280;37521;52.020;-1.740;2023-03-22T04:47:33;98018.53;;;7.49;100.00
51452;BME280;37521;52.020;-1.740;2023-03-22T04:50:05;98026.31;;;7.51;100.00
51452;BME280;37521;52.020;-1.740;2023-03-22T04:52:40;98030.59;;;7.52;100.00
51452;BME280;37521;52.020;-1.740;2023-03-22T04:55:09;98038.38;;;7.53;100.00
51452;BME280;37521;52.020;-1.740;2023-03-22T04:57:38;98027.97;;;7.52;100.00
51452;BME280;37521;52.020;-1.740;2023-03-22T05:00:08;98029.94;;;7.48;100.00
51452;BME280;37521;52.020;-1.740;2023-03-22T05:02:37;98036.16;;;7.47;100.00
51452;BME280;37521;52.020;-1.740;2023-03-22T05:05:15;98034.28;;;7.49;100.00
51452;BME280;37521;52.020;-1.740;2023-03-22T05:07:45;98028.16;;;7.49;100.00
51452;BME280;37521;52.020;-1.740;2023-03-22T05:10:13;98046.66;;;7.47;100.00
51452;BME280;37521;52.020;-1.740;2023-03-22T05:12:42;98045.81;;;7.47;100.00
51452;BME280;37521;52.020;-1.740;2023-03-22T05:15:21;98054.41;;;7.49;100.00
51452;BME280;37521;52.020;-1.740;2023-03-22T05:17:51;98046.47;;;7.50;100.00
51452;BME280;37521;52.020;-1.740;2023-03-22T05:20:22;98053.59;;;7.48;100.00
51452;BME280;37521;52.020;-1.740;2023-03-22T05:23:05;98054.63;;;7.46;100.00
51452;BME280;37521;52.020;-1.740;2023-03-22T05:25:33;98044.97;;;7.46;100.00
51452;BME280;37521;52.020;-1.740;2023-03-22T05:28:01;98052.97;;;7.45;100.00
51452;BME280;37521;52.020;-1.740;2023-03-22T05:30:42;98063.47;;;7.45;100.00
51452;BME280;37521;52.020;-1.740;2023-03-22T05:33:22;98050.63;;;7.40;100.00
51452;BME280;37521;52.020;-1.740;2023-03-22T05:35:54;98050.81;;;7.37;100.00
51452;BME280;37521;52.020;-1.740;2023-03-22T05:38:25;98045.75;;;7.34;100.00
51452;BME280;37521;52.020;-1.740;2023-03-22T05:40:56;98054.59;;;7.33;100.00
51452;BME280;37521;52.020;-1.740;2023-03-22T05:43:25;98059.84;;;7.33;100.00
51452;BME280;37521;52.020;-1.740;2023-03-22T05:45:54;98068.66;;;7.32;100.00
51452;BME280;37521;52.020;-1.740;2023-03-22T05:48:33;98040.00;;;7.29;100.00
51452;BME280;37521;52.020;-1.740;2023-03-22T05:51:04;98061.91;;;7.28;100.00
51452;BME280;37521;52.020;-1.740;2023-03-22T05:53:33;98064.44;;;7.29;100.00
51452;BME280;37521;52.020;-1.740;2023-03-22T05:56:14;98075.59;;;7.33;100.00
51452;BME280;37521;52.020;-1.740;2023-03-22T05:58:45;98067.81;;;7.31;100.00
51452;BME280;37521;52.020;-1.740;2023-03-22T06:01:18;98074.13;;;7.29;100.00
51452;BME280;37521;52.020;-1.740;2023-03-22T06:04:07;98071.78;;;7.24;100.00
51452;BME280;37521;52.020;-1.740;2023-03-22T06:06:48;98069.72;;;7.15;100.00
51452;BME280;37521;52.020;-1.740;2023-03-22T06:09:35;98063.94;;;7.10;100.00
51452;BME280;37521;52.020;-1.740;2023-03-22T06:12:07;98071.69;;;7.12;100.00
51452;BME280;37521;52.020;-1.740;2023-03-22T06:14:35;98069.91;;;7.12;100.00
51452;BME280;37521;52.020;-1.740;2023-03-22T06:17:13;98070.75;;;7.13;100.00
51452;BME280;37521;52.020;-1.740;2023-03-22T06:19:42;98066.25;;;7.15;100.00
51452;BME280;37521;52.020;-1.740;2023-03-22T06:22:12;98068.34;;;7.09;100.00
51452;BME280;37521;52.020;-1.740;2023-03-22T06:24:41;98093.47;;;6.99;100.00
51452;BME280;37521;52.020;-1.740;2023-03-22T06:27:16;98086.53;;;6.98;100.00
51452;BME280;37521;52.020;-1.740;2023-03-22T06:29:44;98086.72;;;6.95;100.00
51452;BME280;37521;52.020;-1.740;2023-03-22T06:32:21;98114.81;;;6.93;100.00
51452;BME280;37521;52.020;-1.740;2023-03-22T06:34:50;98105.28;;;6.92;100.00
51452;BME280;37521;52.020;-1.740;2023-03-22T06:37:20;98108.75;;;6.93;100.00
51452;BME280;37521;52.020;-1.740;2023-03-22T06:39:48;98104.53;;;6.90;100.00
51452;BME280;37521;52.020;-1.740;2023-03-22T06:42:18;98107.91;;;6.92;100.00
51452;BME280;37521;52.020;-1.740;2023-03-22T06:44:57;98115.97;;;6.89;100.00
51452;BME280;37521;52.020;-1.740;2023-03-22T06:47:31;98124.69;;;6.90;100.00
51452;BME280;37521;52.020;-1.740;2023-03-22T06:50:00;98115.97;;;6.89;100.00
51452;BME280;37521;52.020;-1.740;2023-03-22T06:52:48;98116.16;;;6.86;100.00
51452;BME280;37521;52.020;-1.740;2023-03-22T06:55:16;98131.97;;;6.85;100.00
51452;BME280;37521;52.020;-1.740;2023-03-22T06:57:45;98134.59;;;6.85;100.00
51452;BME280;37521;52.020;-1.740;2023-03-22T07:00:13;98141.63;;;6.84;100.00
51452;BME280;37521;52.020;-1.740;2023-03-22T07:02:43;98136.28;;;6.86;100.00
51452;BME280;37521;52.020;-1.740;2023-03-22T07:05:19;98152.13;;;6.84;100.00
51452;BME280;37521;52.020;-1.740;2023-03-22T07:07:48;98150.63;;;6.80;100.00
51452;BME280;37521;52.020;-1.740;2023-03-22T07:10:16;98162.06;;;6.79;100.00
51452;BME280;37521;52.020;-1.740;2023-03-22T07:12:44;98161.31;;;6.77;100.00
51452;BME280;37521;52.020;-1.740;2023-03-22T07:15:15;98168.03;;;6.81;100.00
51452;BME280;37521;52.020;-1.740;2023-03-22T07:17:54;98168.72;;;6.85;100.00
51452;BME280;37521;52.020;-1.740;2023-03-22T07:20:22;98165.16;;;6.86;100.00
51452;BME280;37521;52.020;-1.740;2023-03-22T07:22:50;98158.84;;;6.88;100.00
51452;BME280;37521;52.020;-1.740;2023-03-22T07:25:21;98170.13;;;6.90;100.00
51452;BME280;37521;52.020;-1.740;2023-03-22T07:27:58;98160.16;;;6.95;100.00
51452;BME280;37521;52.020;-1.740;2023-03-22T07:30:27;98168.59;;;7.00;100.00
51452;BME280;37521;52.020;-1.740;2023-03-22T07:32:56;98158.69;;;7.05;100.00
51452;BME280;37521;52.020;-1.740;2023-03-22T07:35:25;98162.88;;;7.08;100.00
51452;BME280;37521;52.020;-1.740;2023-03-22T07:37:54;98157.56;;;7.09;100.00
51452;BME280;37521;52.020;-1.740;2023-03-22T07:40:28;98171.44;;;7.12;100.00
51452;BME280;37521;52.020;-1.740;2023-03-22T07:42:57;98167.88;;;7.13;100.00
51452;BME280;37521;52.020;-1.740;2023-03-22T07:45:44;98164.28;;;7.14;100.00
51452;BME280;37521;52.020;-1.740;2023-03-22T07:48:32;98169.53;;;7.14;100.00
51452;BME280;37521;52.020;-1.740;2023-03-22T07:51:20;98164.19;;;7.15;100.00
51452;BME280;37521;52.020;-1.740;2023-03-22T07:53:49;98172.00;;;7.17;100.00
51452;BME280;37521;52.020;-1.740;2023-03-22T07:56:17;98166.81;;;7.15;100.00
51452;BME280;37521;52.020;-1.740;2023-03-22T07:58:45;98165.13;;;7.14;100.00
51452;BME280;37521;52.020;-1.740;2023-03-22T08:01:14;98167.03;;;7.12;100.00
51452;BME280;37521;52.020;-1.740;2023-03-22T08:03:56;98176.84;;;7.08;100.00
51452;BME280;37521;52.020;-1.740;2023-03-22T08:06:33;98182.50;;;7.02;100.00
51452;BME280;37521;52.020;-1.740;2023-03-22T08:09:03;98188.75;;;7.00;100.00
51452;BME280;37521;52.020;-1.740;2023-03-22T08:11:31;98194.28;;;6.95;100.00
51452;BME280;37521;52.020;-1.740;2023-03-22T08:13:59;98177.16;;;6.90;100.00
51452;BME280;37521;52.020;-1.740;2023-03-22T08:16:30;98195.09;;;6.81;100.00
51452;BME280;37521;52.020;-1.740;2023-03-22T08:19:01;98197.25;;;6.75;100.00
51452;BME280;37521;52.020;-1.740;2023-03-22T08:21:33;98193.16;;;6.71;100.00
51452;BME280;37521;52.020;-1.740;2023-03-22T08:24:04;98191.47;;;6.70;100.00
51452;BME280;37521;52.020;-1.740;2023-03-22T08:26:51;98194.34;;;6.65;100.00
51452;BME280;37521;52.020;-1.740;2023-03-22T08:29:31;98182.53;;;6.58;100.00
51452;BME280;37521;52.020;-1.740;2023-03-22T08:32:01;98178.13;;;6.59;100.00
51452;BME280;37521;52.020;-1.740;2023-03-22T08:34:35;98181.88;;;6.54;100.00
51452;BME280;37521;52.020;-1.740;2023-03-22T08:37:03;98185.63;;;6.50;100.00
51452;BME280;37521;52.020;-1.740;2023-03-22T08:39:51;98194.41;;;6.49;100.00
51452;BME280;37521;52.020;-1.740;2023-03-22T08:42:32;98195.91;;;6.53;100.00
51452;BME280;37521;52.020;-1.740;2023-03-22T08:45:01;98209.25;;;6.65;100.00
51452;BME280;37521;52.020;-1.740;2023-03-22T08:47:31;98203.06;;;6.80;100.00
51452;BME280;37521;52.020;-1.740;2023-03-22T08:50:04;98207.41;;;6.95;100.00
51452;BME280;37521;52.020;-1.740;2023-03-22T08:52:42;98200.28;;;7.12;100.00
51452;BME280;37521;52.020;-1.740;2023-03-22T08:55:20;98203.84;;;7.25;100.00
51452;BME280;37521;52.020;-1.740;2023-03-22T08:58:07;98203.28;;;7.34;100.00
51452;BME280;37521;52.020;-1.740;2023-03-22T09:00:55;98196.72;;;7.41;100.00
51452;BME280;37521;52.020;-1.740;2023-03-22T09:03:29;98192.47;;;7.53;100.00
51452;BME280;37521;52.020;-1.740;2023-03-22T09:05:59;98203.06;;;7.65;100.00
51452;BME280;37521;52.020;-1.740;2023-03-22T09:08:31;98199.66;;;7.78;100.00
51452;BME280;37521;52.020;-1.740;2023-03-22T09:11:07;98212.75;;;7.92;100.00
51452;BME280;37521;52.020;-1.740;2023-03-22T09:13:35;98205.03;;;8.03;100.00
51452;BME280;37521;52.020;-1.740;2023-03-22T09:16:04;98201.25;;;8.07;100.00
51452;BME280;37521;52.020;-1.740;2023-03-22T09:18:35;98199.31;;;8.24;100.00
51452;BME280;37521;52.020;-1.740;2023-03-22T09:21:10;98197.47;;;8.38;100.00
51452;BME280;37521;52.020;-1.740;2023-03-22T09:23:48;98193.50;;;8.45;100.00
51452;BME280;37521;52.020;-1.740;2023-03-22T09:26:21;98202.00;;;8.49;100.00
51452;BME280;37521;52.020;-1.740;2023-03-22T09:28:51;98198.06;;;8.56;100.00
51452;BME280;37521;52.020;-1.740;2023-03-22T09:31:19;98205.75;;;8.72;100.00
51452;BME280;37521;52.020;-1.740;2023-03-22T09:33:58;98197.22;;;8.81;100.00
51452;BME280;37521;52.020;-1.740;2023-03-22T09:36:28;98182.69;;;8.88;100.00
51452;BME280;37521;52.020;-1.740;2023-03-22T09:38:58;98179.44;;;8.97;100.00
51452;BME280;37521;52.020;-1.740;2023-03-22T09:41:34;98188.78;;;9.14;100.00
51452;BME280;37521;52.020;-1.740;2023-03-22T09:44:06;98191.63;;;9.37;100.00
51452;BME280;37521;52.020;-1.740;2023-03-22T09:46:38;98189.50;;;9.42;100.00
51452;BME280;37521;52.020;-1.740;2023-03-22T09:49:12;98185.97;;;9.17;100.00
51452;BME280;37521;52.020;-1.740;2023-03-22T09:51:45;98179.75;;;9.18;100.00
51452;BME280;37521;52.020;-1.740;2023-03-22T09:54:16;98185.19;;;9.28;100.00
51452;BME280;37521;52.020;-1.740;2023-03-22T09:56:49;98189.00;;;9.37;100.00
51452;BME280;37521;52.020;-1.740;2023-03-22T09:59:25;98184.88;;;9.33;100.00
51452;BME280;37521;52.020;-1.740;2023-03-22T10:01:58;98187.06;;;9.51;100.00
51452;BME280;37521;52.020;-1.740;2023-03-22T10:04:39;98180.53;;;9.81;100.00
51452;BME280;37521;52.020;-1.740;2023-03-22T10:07:21;98181.84;;;9.99;100.00
51452;BME280;37521;52.020;-1.740;2023-03-22T10:10:03;98190.50;;;10.25;100.00
51452;BME280;37521;52.020;-1.740;2023-03-22T10:12:38;98181.97;;;10.46;100.00
51452;BME280;37521;52.020;-1.740;2023-03-22T10:15:12;98194.50;;;10.66;100.00
51452;BME280;37521;52.020;-1.740;2023-03-22T10:17:44;98187.03;;;10.60;100.00
51452;BME280;37521;52.020;-1.740;2023-03-22T10:20:22;98179.81;;;10.51;100.00
51452;BME280;37521;52.020;-1.740;2023-03-22T10:22:57;98183.88;;;10.44;100.00
51452;BME280;37521;52.020;-1.740;2023-03-22T10:25:32;98194.88;;;10.38;100.00
51452;BME280;37521;52.020;-1.740;2023-03-22T10:28:13;98183.63;;;10.47;100.00
51452;BME280;37521;52.020;-1.740;2023-03-22T10:30:44;98197.63;;;10.82;100.00
51452;BME280;37521;52.020;-1.740;2023-03-22T10:33:22;98191.19;;;11.09;100.00
51452;BME280;37521;52.020;-1.740;2023-03-22T10:35:53;98185.94;;;11.20;100.00
51452;BME280;37521;52.020;-1.740;2023-03-22T10:38:25;98189.91;;;11.37;100.00
51452;BME280;37521;52.020;-1.740;2023-03-22T10:40:56;98186.28;;;11.27;100.00
51452;BME280;37521;52.020;-1.740;2023-03-22T10:43:30;98189.19;;;11.46;100.00
51452;BME280;37521;52.020;-1.740;2023-03-22T10:46:00;98190.47;;;11.63;100.00
51452;BME280;37521;52.020;-1.740;2023-03-22T10:48:31;98195.78;;;11.29;100.00
51452;BME280;37521;52.020;-1.740;2023-03-22T10:51:02;98199.06;;;10.64;100.00
51452;BME280;37521;52.020;-1.740;2023-03-22T10:53:36;98195.84;;;10.36;100.00
51452;BME280;37521;52.020;-1.740;2023-03-22T10:56:10;98186.69;;;10.29;100.00
51452;BME280;37521;52.020;-1.740;2023-03-22T10:58:39;98203.00;;;10.34;100.00
51452;BME280;37521;52.020;-1.740;2023-03-22T11:01:09;98197.94;;;10.07;100.00
51452;BME280;37521;52.020;-1.740;2023-03-22T11:03:39;98199.22;;;10.02;100.00
51452;BME280;37521;52.020;-1.740;2023-03-22T11:06:10;98191.03;;;9.94;100.00
51452;BME280;37521;52.020;-1.740;2023-03-22T11:08:43;98194.34;;;10.08;100.00
51452;BME280;37521;52.020;-1.740;2023-03-22T11:11:21;98191.59;;;10.58;100.00
51452;BME280;37521;52.020;-1.740;2023-03-22T11:13:54;98189.63;;;10.95;100.00
51452;BME280;37521;52.020;-1.740;2023-03-22T11:16:25;98188.94;;;11.38;100.00
51452;BME280;37521;52.020;-1.740;2023-03-22T11:18:54;98177.59;;;11.92;100.00
51452;BME280;37521;52.020;-1.740;2023-03-22T11:21:29;98172.53;;;12.32;100.00
51452;BME280;37521;52.020;-1.740;2023-03-22T11:24:02;98174.22;;;12.33;100.00
51452;BME280;37521;52.020;-1.740;2023-03-22T11:26:34;98175.66;;;12.37;100.00
51452;BME280;37521;52.020;-1.740;2023-03-22T11:29:12;98181.78;;;12.06;100.00
51452;BME280;37521;52.020;-1.740;2023-03-22T11:31:59;98166.81;;;12.16;100.00
51452;BME280;37521;52.020;-1.740;2023-03-22T11:34:29;98184.63;;;12.14;100.00
51452;BME280;37521;52.020;-1.740;2023-03-22T11:36:59;98167.97;;;12.23;100.00
51452;BME280;37521;52.020;-1.740;2023-03-22T11:39:29;98176.41;;;12.28;100.00
51452;BME280;37521;52.020;-1.740;2023-03-22T11:41:58;98168.97;;;12.43;99.18
51452;BME280;37521;52.020;-1.740;2023-03-22T11:44:31;98158.81;;;12.38;100.00
51452;BME280;37521;52.020;-1.740;2023-03-22T11:47:01;98169.59;;;12.46;100.00
51452;BME280;37521;52.020;-1.740;2023-03-22T11:49:37;98161.44;;;12.80;97.87
51452;BME280;37521;52.020;-1.740;2023-03-22T11:52:09;98166.06;;;13.08;89.55
51452;BME280;37521;52.020;-1.740;2023-03-22T11:54:41;98168.00;;;13.06;88.49
51452;BME280;37521;52.020;-1.740;2023-03-22T11:57:14;98172.19;;;13.30;90.57
51452;BME280;37521;52.020;-1.740;2023-03-22T11:59:46;98173.69;;;13.23;89.31
51452;BME280;37521;52.020;-1.740;2023-03-22T12:02:19;98174.09;;;12.76;85.85
51452;BME280;37521;52.020;-1.740;2023-03-22T12:04:55;98175.06;;;12.54;89.86
51452;BME280;37521;52.020;-1.740;2023-03-22T12:07:28;98178.22;;;12.48;89.79
51452;BME280;37521;52.020;-1.740;2023-03-22T12:10:02;98164.28;;;12.46;89.99
51452;BME280;37521;52.020;-1.740;2023-03-22T12:12:35;98152.66;;;12.38;87.52
51452;BME280;37521;52.020;-1.740;2023-03-22T12:15:12;98162.28;;;12.07;89.07
51452;BME280;37521;52.020;-1.740;2023-03-22T12:17:46;98154.19;;;11.65;85.53
51452;BME280;37521;52.020;-1.740;2023-03-22T12:20:20;98158.31;;;11.46;90.62
51452;BME280;37521;52.020;-1.740;2023-03-22T12:22:54;98153.75;;;11.37;93.04
51452;BME280;37521;52.020;-1.740;2023-03-22T12:25:28;98148.91;;;11.54;93.64
51452;BME280;37521;52.020;-1.740;2023-03-22T12:28:01;98154.00;;;12.32;94.78
51452;BME280;37521;52.020;-1.740;2023-03-22T12:30:37;98150.03;;;13.31;91.69
51452;BME280;37521;52.020;-1.740;2023-03-22T12:33:13;98141.19;;;13.71;80.93
51452;BME280;37521;52.020;-1.740;2023-03-22T12:35:45;98143.50;;;13.14;76.28
51452;BME280;37521;52.020;-1.740;2023-03-22T12:38:27;98142.31;;;12.55;76.84
51452;BME280;37521;52.020;-1.740;2023-03-22T12:41:03;98154.16;;;12.51;82.65
51452;BME280;37521;52.020;-1.740;2023-03-22T12:43:40;98155.56;;;12.76;80.24
51452;BME280;37521;52.020;-1.740;2023-03-22T12:46:15;98160.75;;;12.78;77.67
51452;BME280;37521;52.020;-1.740;2023-03-22T12:48:48;98161.59;;;12.58;75.51
51452;BME280;37521;52.020;-1.740;2023-03-22T12:51:17;98143.81;;;12.27;78.52
51452;BME280;37521;52.020;-1.740;2023-03-22T12:53:47;98140.91;;;11.98;77.57
51452;BME280;37521;52.020;-1.740;2023-03-22T12:56:20;98132.78;;;11.79;80.79
51452;BME280;37521;52.020;-1.740;2023-03-22T12:58:52;98120.31;;;11.59;83.94
51452;BME280;37521;52.020;-1.740;2023-03-22T13:01:28;98125.97;;;11.43;86.39
51452;BME280;37521;52.020;-1.740;2023-03-22T13:03:59;98127.56;;;11.34;87.84
51452;BME280;37521;52.020;-1.740;2023-03-22T13:07:08;98132.84;;;11.34;92.55
51452;BME280;37521;52.020;-1.740;2023-03-22T13:09:40;98126.97;;;11.31;91.32
51452;BME280;37521;52.020;-1.740;2023-03-22T13:12:29;98119.28;;;11.39;91.41
51452;BME280;37521;52.020;-1.740;2023-03-22T13:15:02;98110.13;;;11.43;90.20
51452;BME280;37521;52.020;-1.740;2023-03-22T13:17:38;98125.25;;;11.52;91.76
51452;BME280;37521;52.020;-1.740;2023-03-22T13:20:27;98101.53;;;11.73;90.53
51452;BME280;37521;52.020;-1.740;2023-03-22T13:23:00;98096.97;;;11.86;88.36